Time;durP1;ratioP1;P1;durP2;ratioP2;P2;SDS_P1;SDS_P2;PMS_P1;PMS_P2;Temp;Humidity;BMP_temperature;BMP_pressure;BME280_temperature;BME280_humidity;BME280_pressure;Samples;Min_cycle;Max_cycle;Signal;HPM_P1;HPM_P2
2022/04/10 00:00:00;;;;;;;;;;;;;;;;;;;;;
2022/04/10 00:03:12;;;;;;;;;;;;;;;;;;;;;
2022/04/10 00:10:28;;;;;;;;;;;;;;;;;;;;;
2022/04/10 00:17:53;;;;;;;;;;;;;;;;;;;;;
2022/04/10 00:32:18;;;;;;;;;;;;;;;;;;;;;
2022/04/10 00:39:59;;;;;;;4.80;3.20;;;;;;;4.45;60.34;99806.83;108608;1275;22626;-78
2022/04/10 00:43:30;;;;;;;6.10;3.20;;;;;;;4.18;61.04;99806.20;109105;1265;23047;-79
2022/04/10 00:46:55;;;;;;;;;;;;;;;;;;;;;
2022/04/10 00:55:38;;;;;;;;;;;;;;;;;;;;;
2022/04/10 01:04:06;;;;;;;;;;;;;;;;;;;;;
2022/04/10 01:08:34;;;;;;;8.10;4.50;;;;;;;3.75;63.09;99829.60;108775;1269;21991;-79
2022/04/10 01:12:31;;;;;;;;;;;;;;;;;;;;;
2022/04/10 01:16:56;;;;;;;8.30;4.00;;;;;;;3.65;63.14;99848.70;108393;1275;21990;-78
2022/04/10 01:20:05;;;;;;;;;;;;;;;;;;;;;
2022/04/10 01:23:31;;;;;;;;;;;;;;;;;;;;;
2022/04/10 01:26:16;;;;;;;7.00;4.00;;;;;;;3.57;63.69;99859.41;107168;1291;22058;-79
2022/04/10 01:29:44;;;;;;;6.80;3.30;;;;;;;3.59;63.82;99861.65;107090;1289;23078;-78
2022/04/10 01:32:54;;;;;;;;;;;;;;;;;;;;;
2022/04/10 01:36:58;;;;;;;;;;;;;;;;;;;;;
2022/04/10 01:40:00;;;;;;;;;;;;;;;;;;;;;
2022/04/10 01:43:44;;;;;;;;;;;;;;;;;;;;;
2022/04/10 01:47:07;;;;;;;8.70;4.50;;;;;;;3.34;64.23;99871.13;106225;1297;22013;-76
2022/04/10 01:50:52;;;;;;;;;;;;;;;;;;;;;
2022/04/10 01:53:59;;;;;;;;;;;;;;;;;;;;;
2022/04/10 01:57:12;;;;;;;;;;;;;;;;;;;;;
2022/04/10 02:00:34;;;;;;;;;;;;;;;;;;;;;
2022/04/10 02:04:22;;;;;;;;;;;;;;;;;;;;;
2022/04/10 02:07:42;;;;;;;;;;;;;;;;;;;;;
2022/04/10 02:10:39;;;;;;;8.80;5.10;;;;;;;3.05;65.29;99882.13;107202;1288;22812;-77
2022/04/10 02:13:55;;;;;;;;;;;;;;;;;;;;;
2022/04/10 02:16:57;;;;;;;;;;;;;;;;;;;;;
2022/04/10 02:21:02;;;;;;;;;;;;;;;3.00;65.81;99889.02;108209;1279;22072;-78
2022/04/10 02:24:57;;;;;;;;;;;;;;;;;;;;;
2022/04/10 02:28:19;;;;;;;;;;;;;;;;;;;;;
2022/04/10 02:32:58;;;;;;;9.30;5.60;;;;;;;2.82;66.41;99889.49;107896;1284;22027;-78
2022/04/10 02:35:43;;;;;;;10.60;5.50;;;;;;;2.81;66.48;99884.38;107501;1287;22592;-78
2022/04/10 02:38:56;;;;;;;;;;;;;;;;;;;;;
2022/04/10 02:42:27;;;;;;;;;;;;;;;;;;;;;
2022/04/10 02:49:23;;;;;;;;;;;;;;;;;;;;;
2022/04/10 02:52:35;;;;;;;10.50;4.70;;;;;;;2.81;67.11;99899.14;108115;1279;23825;-76
2022/04/10 02:55:37;;;;;;;9.20;4.40;;;;;;;2.77;67.19;99901.02;107675;1282;22238;-77
2022/04/10 02:58:36;;;;;;;9.30;4.70;;;;;;;2.76;67.32;99899.73;107930;1282;22913;-77
2022/04/10 03:03:08;;;;;;;;;;;;;;;;;;;;;
2022/04/10 03:05:47;;;;;;;;;;;;;;;;;;;;;
2022/04/10 03:09:11;;;;;;;;;;;;;;;;;;;;;
2022/04/10 03:12:32;;;;;;;7.70;4.20;;;;;;;2.60;67.46;99905.23;108302;1273;23101;-77
2022/04/10 03:17:00;;;;;;;;;;;;;;;;;;;;;
2022/04/10 03:20:44;;;;;;;;;;;;;;;;;;;;;
2022/04/10 03:23:54;;;;;;;;;;;;;;;;;;;;;
2022/04/10 03:27:01;;;;;;;9.90;4.70;;;;;;;2.56;67.90;99926.59;107938;1285;23113;-77
2022/04/10 03:30:08;;;;;;;7.80;4.90;;;;;;;2.56;68.00;99930.45;107714;1282;22105;-79
2022/04/10 03:37:00;;;;;;;;;;;;;;;;;;;;;
2022/04/10 03:40:10;;;;;;;;;;;;;;;;;;;;;
2022/04/10 03:43:35;;;;;;;;;;;;;;;;;;;;;
2022/04/10 03:47:15;;;;;;;;;;;;;;;;;;;;;
2022/04/10 03:50:40;;;;;;;;;;;;;;;;;;;;;
2022/04/10 03:54:04;;;;;;;9.80;7.00;;;;;;;2.43;68.38;99974.84;107620;1285;23749;-78
2022/04/10 03:57:09;;;;;;;14.80;7.90;;;;;;;2.41;68.40;99978.98;107167;1288;22030;-79
2022/04/10 04:03:56;;;;;;;;;;;;;;;;;;;;;
2022/04/10 04:07:07;;;;;;;;;;;;;;;;;;;;;
2022/04/10 04:10:27;;;;;;;;;;;;;;;;;;;;;
2022/04/10 04:14:26;;;;;;;;;;;;;;;;;;;;;
2022/04/10 04:17:52;;;;;;;;;;;;;;;;;;;;;
2022/04/10 04:22:18;;;;;;;;;;;;;;;;;;;;;
2022/04/10 04:26:02;;;;;;;9.90;6.90;;;;;;;2.56;69.19;100016.17;107027;1291;544862;-78
2022/04/10 04:29:35;;;;;;;9.10;6.10;;;;;;;2.56;69.02;100024.63;108505;1276;23750;-76
2022/04/10 05:00:04;;;;;;;;;;;;;;;;;;;;;
2022/04/10 05:04:27;;;;;;;;;;;;;;;;;;;;;
2022/04/10 05:24:08;;;;;;;;;;;;;;;;;;;;;
2022/04/10 05:29:04;;;;;;;9.80;5.30;;;;;;;5.05;61.69;100124.41;110824;1249;23979;-79
2022/04/10 05:34:01;;;;;;;;;;;;;;;;;;;;;
2022/04/10 05:37:37;;;;;;;18.10;12.60;;;;;;;4.24;64.16;100134.73;110031;1262;22175;-78
2022/04/10 05:40:06;;;;;;;;;;;;;;;4.20;64.73;100142.59;109042;1265;22002;-81
2022/04/10 05:42:58;;;;;;;14.30;8.40;;;;;;;4.12;64.91;100146.58;109227;1265;22056;-78
2022/04/10 05:45:41;;;;;;;11.60;8.30;;;;;;;4.10;65.24;100150.23;109139;1263;23703;-79
2022/04/10 05:52:27;;;;;;;17.20;9.40;;;;;;;4.20;65.46;100160.20;109376;1265;22768;-79
2022/04/10 05:55:24;;;;;;;11.20;8.20;;;;;;;4.24;65.43;100163.16;109458;1262;21988;-80
2022/04/10 05:57:57;;;;;;;9.60;6.00;;;;;;;4.27;65.26;100167.11;109809;1259;23224;-80
2022/04/10 06:00:28;;;;;;;10.20;6.70;;;;;;;4.27;65.15;100168.52;110172;1259;22123;-78
2022/04/10 06:03:22;;;;;;;10.80;7.30;;;;;;;4.26;65.16;100170.88;109967;1259;23718;-80
2022/04/10 06:07:01;;;;;;;;;;;;;;;;;;;;;
2022/04/10 06:11:07;;;;;;;;;;;;;;;;;;;;;
2022/04/10 06:14:22;;;;;;;8.80;5.00;;;;;;;4.15;65.20;100170.88;110284;1256;22098;-79
2022/04/10 06:18:19;;;;;;;;;;;;;;;;;;;;;
2022/04/10 06:22:11;;;;;;;16.70;7.10;;;;;;;4.19;65.29;100169.16;109702;1265;22891;-85
2022/04/10 06:26:02;;;;;;;;;;;;;;;;;;;;;
2022/04/10 06:29:00;;;;;;;12.70;6.20;;;;;;;4.57;65.50;100174.97;109020;1270;23827;-80
2022/04/10 06:32:50;;;;;;;10.80;6.10;;;;;;;4.61;64.90;100174.41;108846;1271;23249;-81
2022/04/10 06:36:02;;;;;;;14.00;5.80;;;;;;;4.51;64.42;100180.33;108448;1274;22006;-81
2022/04/10 06:39:33;;;;;;;;;;;;;;;;;;;;;
2022/04/10 06:54:28;;;;;;;;;;;;;;;;;;;;;
2022/04/10 06:59:01;;;;;;;9.50;6.30;;;;;;;5.77;58.84;100201.79;107398;1244;23209;-84
2022/04/10 07:02:28;;;;;;;10.00;5.90;;;;;;;5.31;60.02;100202.60;111141;1251;23583;-81
2022/04/10 07:06:17;;;;;;;;;;;;;;;;;;;;;
2022/04/10 07:10:00;;;;;;;;;;;;;;;;;;;;;
2022/04/10 07:14:23;;;;;;;11.80;6.20;;;;;;;4.87;61.38;100208.27;110026;1260;21992;-80
2022/04/10 07:17:56;;;;;;;;;;;;;;;;;;;;;
2022/04/10 07:20:49;;;;;;;11.90;6.10;;;;;;;4.70;61.96;100210.45;108932;1272;22030;-79
2022/04/10 07:23:56;;;;;;;;;;;;;;;;;;;;;
2022/04/10 07:27:03;;;;;;;;;;;;;;;;;;;;;
2022/04/10 07:29:51;;;;;;;14.00;6.50;;;;;;;4.71;62.24;100212.28;109209;1267;23030;-80
2022/04/10 07:32:36;;;;;;;11.10;5.80;;;;;;;4.84;62.31;100211.66;109590;1260;23647;-78
2022/04/10 07:35:25;;;;;;;16.40;7.50;;;;;;;4.94;62.07;100214.98;110295;1247;22005;-79
2022/04/10 07:38:57;;;;;;;;;;;;;;;;;;;;;
2022/04/10 07:42:29;;;;;;;14.00;5.90;;;;;;;5.18;62.06;100220.01;110848;1251;23400;-79
2022/04/10 07:50:02;;;;;;;10.00;6.00;;;;;;;5.46;61.39;100222.37;111274;1241;24362;-76
2022/04/10 07:53:46;;;;;;;;;;;;;;;;;;;;;
2022/04/10 07:58:36;;;;;;;;;;;;;;;;;;;;;
2022/04/10 08:02:38;;;;;;;;;;;;;;;;;;;;;
2022/04/10 08:06:35;;;;;;;;;;;;;;;;;;;;;
2022/04/10 08:09:47;;;;;;;;;;;;;;;;;;;;;
2022/04/10 08:14:08;;;;;;;11.40;5.60;;;;;;;6.12;58.48;100261.18;108642;1276;23823;-83
2022/04/10 08:17:13;;;;;;;12.00;5.80;;;;;;;6.01;58.35;100262.48;109120;1270;22125;-80
2022/04/10 08:21:00;;;;;;;11.90;6.20;;;;;;;5.94;58.24;100270.48;108832;1276;22024;-85
2022/04/10 08:24:29;;;;;;;;;;;;;;;;;;;;;
2022/04/10 08:27:45;;;;;;;;;;;;;;;;;;;;;
2022/04/10 08:30:56;;;;;;;;;;;;;;;;;;;;;
2022/04/10 08:34:04;;;;;;;;;;;;;;;;;;;;;
2022/04/10 08:37:43;;;;;;;;;;;;;;;;;;;;;
2022/04/10 08:41:11;;;;;;;11.80;6.90;;;;;;;6.77;60.17;100280.80;109360;1266;24400;-84
2022/04/10 08:44:56;;;;;;;13.20;6.90;;;;;;;7.44;59.62;100278.05;109205;1267;22889;-84
2022/04/10 08:48:32;;;;;;;;;;;;;;;;;;;;;
2022/04/10 08:52:20;;;;;;;;;;;;;;;;;;;;;
2022/04/10 08:55:54;;;;;;;;;;;;;;;;;;;;;
2022/04/10 09:00:12;;;;;;;;;;;;;;;;;;;;;
2022/04/10 09:03:24;;;;;;;;;;;;;;;;;;;;;
2022/04/10 09:06:40;;;;;;;;;;;;;;;;;;;;;
2022/04/10 09:10:44;;;;;;;;;;;;;;;;;;;;;
2022/04/10 09:14:56;;;;;;;11.30;7.30;;;;;;;7.54;52.91;100278.71;110397;1260;21985;-84
2022/04/10 09:18:42;;;;;;;;;;;;;;;;;;;;;
2022/04/10 09:23:15;;;;;;;;;;;;;;;;;;;;;
2022/04/10 09:30:58;;;;;;;;;;;;;;;;;;;;;
2022/04/10 09:38:28;;;;;;;;;;;;;;;;;;;;;
2022/04/10 09:42:06;;;;;;;12.10;6.50;;;;;;;8.17;53.06;100268.96;109231;1272;22128;-85
2022/04/10 09:45:06;;;;;;;;;;;;;;;;;;;;;
2022/04/10 09:48:27;;;;;;;;;;;;;;;;;;;;;
2022/04/10 09:51:40;;;;;;;11.30;4.80;;;;;;;8.21;49.76;100274.79;108488;1279;22061;-84
2022/04/10 09:55:04;;;;;;;;;;;;;;;;;;;;;
2022/04/10 09:58:19;;;;;;;14.50;7.30;;;;;;;7.97;49.87;100282.12;108514;1278;22033;-85
2022/04/10 10:01:10;;;;;;;10.70;5.20;;;;;;;7.92;50.20;100286.17;108698;1269;23983;-86
2022/04/10 10:04:21;;;;;;;;;;;;;;;;;;;;;
2022/04/10 10:07:44;;;;;;;8.30;4.40;;;;;;;7.86;50.12;100279.73;109594;1262;22563;-86
2022/04/10 10:11:02;;;;;;;;;;;;;;;;;;;;;
2022/04/10 10:17:29;;;;;;;12.00;5.70;;;;;;;8.34;51.31;100283.73;109140;1270;23713;-85
2022/04/10 10:20:44;;;;;;;;;;;;;;;;;;;;;
2022/04/10 10:23:58;;;;;;;7.60;4.20;;;;;;;9.19;50.17;100282.86;109474;1266;22002;-84
2022/04/10 10:27:32;;;;;;;9.10;4.30;;;;;;;9.94;49.35;100280.35;109324;1267;22004;-86
2022/04/10 10:31:12;;;;;;;12.60;4.30;;;;;;;10.74;47.85;100279.04;109668;1264;21949;-84
2022/04/10 10:34:52;;;;;;;;;;;;;;;;;;;;;
2022/04/10 10:38:31;;;;;;;;;;;;;;;;;;;;;
2022/04/10 10:42:42;;;;;;;;;;;;;;;;;;;;;
2022/04/10 10:45:45;;;;;;;18.20;4.10;;;;;;;12.11;44.53;100286.00;110027;1263;23829;-85
2022/04/10 10:50:14;;;;;;;;;;;;;;;;;;;;;
2022/04/10 10:54:11;;;;;;;;;;;;;;;;;;;;;
2022/04/10 11:02:25;;;;;;;;;;;;;;;;;;;;;
2022/04/10 11:06:37;;;;;;;9.20;4.20;;;;;;;10.89;40.65;100291.59;109091;1270;22038;-85
2022/04/10 11:09:59;;;;;;;;;;;;;;;;;;;;;
2022/04/10 11:14:24;;;;;;;;;;;;;;;;;;;;;
2022/04/10 11:16:42;;;;;;;8.60;3.80;;;;;;;9.95;42.07;100297.05;109706;1261;22442;-82
2022/04/10 11:19:29;;;;;;;11.00;3.70;;;;;;;9.85;42.17;100301.11;109364;1266;23094;-81
2022/04/10 11:22:19;;;;;;;6.90;3.80;;;;;;;9.70;41.91;100300.34;109316;1267;22633;-78
2022/04/10 11:25:01;;;;;;;9.70;3.80;;;;;;;9.50;42.41;100300.22;109399;1266;23581;-79
2022/04/10 11:28:07;;;;;;;11.70;5.00;;;;;;;9.58;43.38;100298.27;109696;1257;21974;-81
2022/04/10 11:31:19;;;;;;;7.40;3.80;;;;;;;9.70;42.99;100305.19;109854;1263;22070;-79
2022/04/10 11:34:31;;;;;;;6.30;3.20;;;;;;;9.69;42.89;100300.54;109189;1267;22008;-80
2022/04/10 11:37:03;;;;;;;5.50;2.80;;;;;;;9.73;42.87;100298.83;109824;1260;22362;-80
2022/04/10 11:39:37;;;;;;;6.60;3.40;;;;;;;9.77;42.70;100297.39;110143;1257;21992;-80
2022/04/10 11:42:12;;;;;;;9.40;4.70;;;;;;;9.81;42.62;100300.77;110273;1259;22106;-81
2022/04/10 11:44:49;;;;;;;10.40;4.10;;;;;;;9.83;42.20;100303.33;110063;1260;22760;-81
2022/04/10 11:47:18;;;;;;;7.80;4.00;;;;;;;9.72;41.85;100303.17;109960;1260;21990;-80
2022/04/10 11:49:52;;;;;;;7.40;5.30;;;;;;;9.61;42.15;100306.83;110608;1254;24303;-81
2022/04/10 11:52:28;;;;;;;10.40;4.30;;;;;;;9.56;42.56;100309.03;110634;1251;22772;-80
2022/04/10 11:55:04;;;;;;;6.20;3.20;;;;;;;9.52;42.36;100316.20;110807;1251;22507;-78
2022/04/10 11:57:39;;;;;;;6.20;3.20;;;;;;;9.29;41.76;100316.14;110570;1254;22775;-78
2022/04/10 12:00:13;;;;;;;7.00;3.10;;;;;;;9.03;41.92;100313.54;109832;1256;21976;-81
2022/04/10 12:02:46;;;;;;;9.60;3.50;;;;;;;8.80;42.21;100315.52;110415;1255;21956;-79
2022/04/10 12:05:15;;;;;;;7.70;3.10;;;;;;;8.66;42.83;100316.86;110273;1257;21988;-79
2022/04/10 12:07:43;;;;;;;9.00;3.30;;;;;;;8.55;42.97;100318.31;109971;1260;24401;-79
2022/04/10 12:10:19;;;;;;;5.00;3.00;;;;;;;8.44;43.47;100321.00;110069;1258;23602;-78
2022/04/10 12:12:48;;;;;;;8.10;3.30;;;;;;;8.35;43.57;100318.67;109995;1258;22903;-77
2022/04/10 12:15:19;;;;;;;9.80;3.60;;;;;;;8.16;43.79;100316.04;109791;1257;24040;-79
2022/04/10 12:18:16;;;;;;;7.80;3.20;;;;;;;8.04;44.18;100313.73;109854;1263;23713;-78
2022/04/10 12:20:45;;;;;;;7.70;4.00;;;;;;;7.96;44.58;100318.02;109638;1263;23596;-79
2022/04/10 12:23:24;;;;;;;9.90;4.50;;;;;;;7.96;44.86;100316.25;109270;1263;21983;-80
2022/04/10 12:26:03;;;;;;;10.50;5.20;;;;;;;7.93;44.66;100309.02;110271;1254;21980;-78
2022/04/10 12:28:38;;;;;;;13.10;5.60;;;;;;;7.91;44.95;100313.20;110298;1254;24984;-80
2022/04/10 12:31:24;;;;;;;10.80;5.00;;;;;;;8.01;45.32;100311.77;110405;1257;24188;-77
2022/04/10 12:33:57;;;;;;;12.50;4.60;;;;;;;8.18;45.55;100311.48;109843;1260;23625;-79
2022/04/10 12:36:51;;;;;;;6.50;3.50;;;;;;;8.35;45.28;100313.62;110039;1260;22013;-80
2022/04/10 12:39:42;;;;;;;;;;;;;;;;;;;;;
2022/04/10 12:42:20;;;;;;;8.10;3.90;;;;;;;8.53;44.64;100310.39;109119;1269;24311;-80
2022/04/10 12:44:59;;;;;;;8.00;4.10;;;;;;;8.61;44.59;100309.77;109088;1268;22083;-80
2022/04/10 12:47:47;;;;;;;9.00;4.30;;;;;;;8.67;44.27;100309.00;109108;1269;21992;-80
2022/04/10 12:50:23;;;;;;;7.20;3.40;;;;;;;8.74;44.11;100306.39;108910;1269;22119;-81
2022/04/10 12:53:12;;;;;;;7.90;3.10;;;;;;;8.81;43.94;100300.75;109513;1260;22523;-81
2022/04/10 12:56:31;;;;;;;7.70;2.70;;;;;;;8.89;43.81;100298.83;109664;1261;21985;-80
2022/04/10 12:59:02;;;;;;;6.80;2.60;;;;;;;8.91;43.30;100309.02;109284;1262;22034;-78
2022/04/10 13:01:56;;;;;;;5.90;2.40;;;;;;;8.78;42.66;100306.30;109962;1257;23489;-80
2022/04/10 13:04:38;;;;;;;27.40;25.10;;;;;;;8.68;42.93;100307.70;110600;1257;22778;-81
2022/04/10 13:07:20;;;;;;;6.50;3.70;;;;;;;8.65;43.42;100300.06;110118;1259;21977;-80
2022/04/10 13:10:03;;;;;;;6.10;3.60;;;;;;;8.70;43.69;100298.80;110655;1256;21995;-79
2022/04/10 13:12:43;;;;;;;7.00;3.40;;;;;;;8.73;43.51;100298.03;110559;1254;24306;-79
2022/04/10 13:15:28;;;;;;;6.10;3.20;;;;;;;8.73;43.41;100299.94;110697;1254;21981;-79
2022/04/10 13:18:03;;;;;;;5.40;2.80;;;;;;;8.71;43.42;100299.08;110722;1251;22370;-77
2022/04/10 13:20:38;;;;;;;7.40;3.70;;;;;;;8.74;43.36;100301.63;110290;1251;22044;-81
2022/04/10 13:23:09;;;;;;;6.60;4.60;;;;;;;8.81;43.48;100303.66;110918;1251;23928;-81
2022/04/10 13:25:37;;;;;;;8.50;3.50;;;;;;;8.91;43.29;100300.49;110716;1251;23039;-79
2022/04/10 13:28:06;;;;;;;9.50;3.70;;;;;;;8.93;42.79;100293.45;110598;1251;21972;-80
2022/04/10 13:30:44;;;;;;;9.60;4.00;;;;;;;8.88;42.63;100300.90;110339;1257;22030;-79
2022/04/10 13:33:29;;;;;;;7.90;3.70;;;;;;;8.80;42.68;100303.80;110502;1256;21980;-79
2022/04/10 13:35:57;;;;;;;8.30;4.40;;;;;;;8.78;43.10;100306.32;110548;1251;22848;-79
2022/04/10 13:38:27;;;;;;;8.70;4.40;;;;;;;8.79;43.12;100307.47;110637;1251;21982;-79
2022/04/10 13:40:56;;;;;;;8.50;4.20;;;;;;;8.68;43.09;100303.50;110588;1251;21985;-79
2022/04/10 13:43:39;;;;;;;6.20;4.10;;;;;;;8.59;43.50;100301.27;110477;1251;22148;-79
2022/04/10 13:46:16;;;;;;;8.20;4.00;;;;;;;8.53;43.76;100297.27;110724;1251;23646;-80
2022/04/10 13:48:47;;;;;;;7.70;5.10;;;;;;;8.43;44.13;100300.34;110616;1251;21966;-79
2022/04/10 13:51:20;;;;;;;13.50;7.90;;;;;;;8.49;44.91;100302.61;110990;1251;21954;-82
2022/04/10 13:53:57;;;;;;;12.60;7.40;;;;;;;8.64;45.26;100302.27;110965;1250;21972;-79
2022/04/10 13:56:32;;;;;;;8.50;4.40;;;;;;;8.71;44.67;100304.55;110882;1251;22453;-80
2022/04/10 13:59:06;;;;;;;8.20;3.80;;;;;;;8.60;44.16;100299.68;110630;1250;23050;-78
2022/04/10 14:01:37;;;;;;;6.90;4.50;;;;;;;8.46;44.40;100302.33;111146;1251;23126;-79
2022/04/10 14:04:27;;;;;;;;;;;;;;;;;;;;;
2022/04/10 14:07:08;;;;;;;9.40;4.60;;;;;;;8.37;45.27;100294.29;111002;1247;21970;-78
2022/04/10 14:09:39;;;;;;;6.60;4.40;;;;;;;8.36;45.16;100296.48;110934;1248;22055;-79
2022/04/10 14:12:10;;;;;;;7.90;3.50;;;;;;;8.34;45.01;100294.39;110480;1251;23035;-80
2022/04/10 14:14:38;;;;;;;8.00;3.90;;;;;;;8.29;44.89;100296.15;110920;1251;21986;-80
2022/04/10 14:17:07;;;;;;;7.50;3.40;;;;;;;8.27;44.91;100293.52;111094;1247;21984;-79
2022/04/10 14:19:39;;;;;;;5.90;2.70;;;;;;;8.30;45.00;100292.16;110655;1247;23071;-79
2022/04/10 14:22:13;;;;;;;7.90;4.10;;;;;;;8.35;44.90;100293.83;111134;1251;22839;-79
2022/04/10 14:25:03;;;;;;;7.10;3.40;;;;;;;8.35;44.69;100298.02;110731;1248;22049;-79
2022/04/10 14:27:39;;;;;;;3.70;2.80;;;;;;;8.35;44.50;100295.20;111236;1247;21972;-81
2022/04/10 14:30:14;;;;;;;8.20;2.90;;;;;;;8.34;44.05;100291.83;111672;1239;21962;-80
2022/04/10 14:32:53;;;;;;;5.60;3.20;;;;;;;8.31;43.89;100288.08;111738;1239;23016;-78
2022/04/10 14:35:21;;;;;;;5.50;2.80;;;;;;;8.29;43.90;100288.70;111559;1239;23026;-79
2022/04/10 14:37:58;;;;;;;7.00;3.10;;;;;;;8.28;44.05;100285.54;111798;1240;22076;-79
2022/04/10 14:40:32;;;;;;;10.30;6.50;;;;;;;8.29;44.11;100283.48;111713;1239;21920;-79
2022/04/10 14:43:10;;;;;;;6.30;3.30;;;;;;;8.31;44.25;100281.04;111824;1239;21962;-79
2022/04/10 14:45:41;;;;;;;9.70;5.60;;;;;;;8.33;44.08;100281.52;111039;1248;21957;-81
2022/04/10 14:48:23;;;;;;;;;;;;;;;;;;;;;
2022/04/10 14:50:59;;;;;;;7.20;4.00;;;;;;;8.39;43.74;100292.21;110890;1253;21974;-79
2022/04/10 14:53:29;;;;;;;4.00;2.00;;;;;;;8.40;43.25;100290.83;110588;1253;22075;-79
2022/04/10 14:56:00;;;;;;;4.40;2.20;;;;;;;8.39;42.91;100293.73;110690;1253;22343;-79
2022/04/10 14:58:29;;;;;;;7.60;4.20;;;;;;;8.38;42.66;100292.63;110532;1253;23033;-79
2022/04/10 15:00:57;;;;;;;4.70;3.00;;;;;;;8.39;42.70;100292.55;110544;1253;22076;-79
2022/04/10 15:03:26;;;;;;;5.60;2.40;;;;;;;8.43;42.52;100294.61;110768;1245;22181;-79
2022/04/10 15:05:54;;;;;;;8.20;2.50;;;;;;;8.44;42.22;100296.19;111398;1245;24292;-80
2022/04/10 15:08:24;;;;;;;5.00;2.60;;;;;;;8.43;41.99;100299.70;111038;1245;21988;-79
2022/04/10 15:10:54;;;;;;;8.60;5.10;;;;;;;8.39;41.92;100300.23;111427;1244;21974;-79
2022/04/10 15:14:13;;;;;;;9.20;3.80;;;;;;;8.38;42.08;100300.21;110850;1251;22432;-80
2022/04/10 15:17:10;;;;;;;;;;;;;;;;;;;;;
2022/04/10 15:20:25;;;;;;;9.60;5.30;;;;;;;8.24;42.31;100307.88;111448;1245;22966;-81
2022/04/10 15:22:57;;;;;;;8.60;4.50;;;;;;;8.25;42.48;100305.38;111746;1245;21938;-81
2022/04/10 15:25:33;;;;;;;8.00;4.70;;;;;;;8.27;42.69;100307.89;111511;1244;23564;-81
2022/04/10 15:28:17;;;;;;;17.90;10.20;;;;;;;8.28;42.74;100311.15;111755;1239;23695;-80
2022/04/10 15:30:54;;;;;;;9.10;5.10;;;;;;;8.26;42.75;100308.93;112077;1233;22239;-81
2022/04/10 15:33:31;;;;;;;9.60;4.20;;;;;;;8.19;42.81;100326.45;111842;1239;24277;-81
2022/04/10 15:36:06;;;;;;;6.70;3.50;;;;;;;8.00;43.25;100339.73;112043;1239;22004;-82
2022/04/10 15:38:35;;;;;;;5.10;2.60;;;;;;;7.77;44.00;100345.17;111927;1239;23672;-81
2022/04/10 15:41:10;;;;;;;7.10;3.60;;;;;;;7.61;44.91;100355.88;111696;1241;21962;-81
2022/04/10 15:43:45;;;;;;;7.00;3.60;;;;;;;7.41;45.82;100359.90;111810;1239;21971;-81
2022/04/10 15:46:18;;;;;;;6.20;5.10;;;;;;;7.21;46.78;100361.91;111617;1242;22789;-81
2022/04/10 15:48:49;;;;;;;4.50;3.20;;;;;;;7.04;47.83;100371.90;111469;1243;23667;-81
2022/04/10 15:51:25;;;;;;;6.40;3.10;;;;;;;6.93;48.71;100380.17;111536;1244;21984;-81
2022/04/10 15:54:02;;;;;;;7.80;3.90;;;;;;;6.78;49.31;100382.10;111534;1244;22112;-81
2022/04/10 15:56:32;;;;;;;7.90;4.00;;;;;;;6.61;50.06;100381.58;111474;1244;23683;-80
2022/04/10 15:59:01;;;;;;;7.10;3.60;;;;;;;6.47;51.05;100383.86;111761;1240;22040;-80
2022/04/10 16:01:39;;;;;;;7.00;3.40;;;;;;;6.35;51.40;100373.95;112199;1239;22016;-80
2022/04/10 16:04:09;;;;;;;8.20;5.10;;;;;;;6.20;52.00;100368.88;112252;1234;24347;-81
2022/04/10 16:06:37;;;;;;;10.10;5.80;;;;;;;6.12;52.72;100371.48;112351;1233;21954;-81
2022/04/10 16:09:07;;;;;;;18.60;12.00;;;;;;;6.12;53.41;100378.63;111660;1239;22045;-81
2022/04/10 16:11:44;;;;;;;9.30;6.40;;;;;;;6.12;53.80;100381.09;111457;1244;24766;-81
2022/04/10 16:14:14;;;;;;;6.00;3.50;;;;;;;6.13;54.32;100382.98;111265;1249;23671;-81
2022/04/10 16:16:52;;;;;;;6.50;3.50;;;;;;;6.17;54.66;100384.33;111161;1248;22420;-79
2022/04/10 16:19:25;;;;;;;7.80;3.90;;;;;;;6.20;54.89;100392.27;110921;1247;22538;-80
2022/04/10 16:22:08;;;;;;;5.20;3.40;;;;;;;6.19;55.12;100395.66;111236;1247;22046;-79
2022/04/10 16:24:40;;;;;;;7.80;3.00;;;;;;;6.06;55.12;100399.97;111110;1250;22004;-78
2022/04/10 16:30:08;;;;;;;5.70;3.90;;;;;;;5.82;56.38;100411.89;110821;1247;21976;-77
2022/04/10 16:32:47;;;;;;;7.90;4.10;;;;;;;5.80;57.00;100413.85;111230;1242;21957;-76
2022/04/10 16:35:30;;;;;;;7.80;3.90;;;;;;;5.78;57.31;100417.83;112364;1233;23658;-81
2022/04/10 16:38:14;;;;;;;7.70;3.70;;;;;;;5.81;58.03;100415.79;112492;1233;21968;-83
2022/04/10 16:40:58;;;;;;;6.50;3.60;;;;;;;5.91;58.59;100413.77;112579;1234;21947;-84
2022/04/10 16:44:23;;;;;;;6.00;4.10;;;;;;;6.03;58.94;100405.36;111811;1244;21949;-79
2022/04/10 16:46:55;;;;;;;5.40;3.80;;;;;;;6.10;58.93;100400.53;111279;1244;22047;-79
2022/04/10 16:49:27;;;;;;;5.80;4.40;;;;;;;6.17;58.97;100407.56;111440;1244;23816;-81
2022/04/10 16:51:59;;;;;;;;;;;;;;;6.21;58.91;100412.65;111723;1244;22029;-80
2022/04/10 16:57:22;;;;;;;7.40;4.80;;;;;;;6.09;58.91;100416.48;111533;1244;23534;-80
2022/04/10 16:59:53;;;;;;;8.60;5.10;;;;;;;6.06;58.72;100421.52;111612;1244;21978;-80
2022/04/10 17:02:25;;;;;;;11.70;5.40;;;;;;;6.00;58.66;100420.09;112043;1233;21996;-80
2022/04/10 17:04:54;;;;;;;8.20;5.90;;;;;;;5.98;58.78;100418.93;112446;1237;21945;-80
2022/04/10 17:07:41;;;;;;;10.10;5.50;;;;;;;5.96;58.93;100413.69;111769;1239;21962;-80
2022/04/10 17:10:12;;;;;;;11.20;6.20;;;;;;;5.92;58.96;100414.55;112030;1240;23021;-81
2022/04/10 17:12:41;;;;;;;24.20;16.10;;;;;;;5.87;58.99;100412.70;112031;1239;22023;-81
2022/04/10 17:15:10;;;;;;;24.00;18.00;;;;;;;5.81;59.15;100410.42;111362;1245;24266;-80
2022/04/10 17:17:39;;;;;;;23.40;16.50;;;;;;;5.73;59.29;100411.47;111598;1244;22976;-79
2022/04/10 17:20:13;;;;;;;22.40;16.10;;;;;;;5.64;59.56;100411.52;111419;1245;22036;-80
2022/04/10 17:22:48;;;;;;;16.10;11.80;;;;;;;5.57;59.84;100410.91;111660;1244;22980;-81
2022/04/10 17:25:17;;;;;;;15.40;12.10;;;;;;;5.51;60.08;100410.77;111552;1240;23583;-80
2022/04/10 17:27:47;;;;;;;17.30;11.80;;;;;;;5.46;60.29;100412.83;111984;1238;21971;-79
2022/04/10 17:30:18;;;;;;;21.70;17.70;;;;;;;5.43;60.43;100413.94;111848;1238;23621;-79
2022/04/10 17:32:48;;;;;;;40.90;35.00;;;;;;;5.38;60.71;100411.86;111744;1233;22538;-79
2022/04/10 17:35:16;;;;;;;38.20;30.60;;;;;;;5.35;60.88;100414.29;112165;1234;23052;-80
2022/04/10 17:37:45;;;;;;;25.20;20.90;;;;;;;5.33;61.08;100414.24;112379;1234;22438;-78
2022/04/10 17:40:16;;;;;;;20.80;17.40;;;;;;;5.33;61.34;100414.27;111559;1241;23067;-80
2022/04/10 17:42:44;;;;;;;28.70;20.90;;;;;;;5.28;61.32;100418.74;111749;1240;21977;-79
2022/04/10 17:45:13;;;;;;;21.80;17.70;;;;;;;5.22;61.45;100422.42;112080;1240;22838;-79
2022/04/10 17:47:51;;;;;;;26.30;17.40;;;;;;;5.20;61.83;100426.92;111746;1240;21963;-79
2022/04/10 17:50:19;;;;;;;22.50;19.40;;;;;;;5.18;61.90;100432.83;111505;1244;23827;-79
2022/04/10 17:52:49;;;;;;;24.90;21.20;;;;;;;5.14;61.92;100435.80;111650;1242;23712;-81
2022/04/10 17:55:19;;;;;;;31.70;27.00;;;;;;;5.12;62.06;100438.78;111221;1242;22050;-77
2022/04/10 17:58:00;;;;;;;21.70;16.20;;;;;;;5.08;62.06;100440.14;111071;1242;22665;-79
2022/04/10 18:00:32;;;;;;;17.80;12.40;;;;;;;5.04;62.10;100444.17;111911;1242;23678;-79
2022/04/10 18:03:03;;;;;;;19.00;14.20;;;;;;;4.99;62.00;100448.27;111097;1248;22985;-79
2022/04/10 18:05:33;;;;;;;16.40;11.80;;;;;;;4.92;61.93;100448.27;111409;1247;23020;-80
2022/04/10 18:08:05;;;;;;;19.20;11.20;;;;;;;4.89;62.01;100449.63;111158;1250;21993;-80
2022/04/10 18:10:35;;;;;;;17.00;10.80;;;;;;;4.85;61.95;100453.64;111428;1251;21992;-80
2022/04/10 18:13:05;;;;;;;19.40;12.60;;;;;;;4.84;62.13;100455.31;111233;1251;23625;-79
2022/04/10 18:15:34;;;;;;;16.10;11.10;;;;;;;4.83;62.09;100458.84;111191;1247;22312;-79
2022/04/10 18:18:10;;;;;;;20.90;12.10;;;;;;;4.82;62.19;100459.61;111328;1247;21967;-79
2022/04/10 18:21:07;;;;;;;21.90;12.60;;;;;;;4.78;62.27;100463.08;111508;1244;23030;-80
2022/04/10 18:23:48;;;;;;;15.60;12.50;;;;;;;4.69;62.23;100459.25;111135;1250;23368;-78
2022/04/10 18:26:22;;;;;;;21.70;14.40;;;;;;;4.65;62.25;100465.16;110921;1250;24313;-78
2022/04/10 18:29:05;;;;;;;16.40;11.30;;;;;;;4.62;62.42;100469.63;111268;1247;22738;-78
2022/04/10 18:31:40;;;;;;;19.60;13.90;;;;;;;4.60;62.60;100474.02;111417;1247;22044;-78
2022/04/10 18:34:18;;;;;;;19.00;13.30;;;;;;;4.58;62.70;100475.92;111311;1247;25013;-77
2022/04/10 18:37:03;;;;;;;21.20;14.00;;;;;;;4.59;62.71;100479.35;111295;1245;21960;-78
2022/04/10 18:40:09;;;;;;;26.40;15.20;;;;;;;4.54;62.71;100482.38;111240;1248;23609;-79
2022/04/10 18:43:12;;;;;;;25.40;15.70;;;;;;;4.48;62.87;100484.59;111820;1239;24278;-78
2022/04/10 18:45:41;;;;;;;23.10;18.70;;;;;;;4.45;63.13;100489.52;113239;1234;21940;-79
2022/04/10 18:48:13;;;;;;;23.20;15.60;;;;;;;4.45;63.25;100490.90;112786;1233;23053;-79
2022/04/10 18:50:48;;;;;;;22.00;14.60;;;;;;;4.47;63.41;100495.08;112794;1235;22052;-77